首页
METAR-TAF:

METAR-TAF

机场 :

Rosecrans Memorial Airport

Saint Joseph, 密蘇里州, 美国

纬度: 39-46-05N, 经度: 094-54-33W, 海拔: 251米

当前天气观测

该预报发布于12分钟前的01:23 UTC
风速11节,风向东南,有时为23节阵风
温度 22°C
湿度 88%
气压 1008 hPa
能見度: 16.1公里
散云层高于1400英尺
多云层高于5000英尺
阴天层高于11000英尺
小雨

METAR: KSTJ 250123Z AUTO 14011G23KT 10SM -RA SCT014 BKN050 OVC110 22/20 A2977 RMK AO2 LTG DSNT E-SW TSE14 PRESFR P0001 T02220200

时间: 20:35 (01:35 UTC)

预报

该预报发布于2小时和10分钟前的23:25 UTC
预报有效从25日的 00点(UTC)到 25日的 24点(UTC)
风速11节,风向西南
能見度: 6.4公里
多云层高于3500英尺, 积雨云.
小阵雨, 附近有雷暴
短暂存在
从 25日的 00点(UTC)到 25日的 04点(UTC)
风速15节,风向西南,有时为25节阵风
能見度: 3.2公里
阴天层高于2500英尺, 积雨云.
雷暴, 小雨
从 25日的 0400点(UTC)
风速11节,风向
能見度: 6.4公里
多云层高于3500英尺, 积雨云.
阴天层高于15000英尺
雷暴, 小雨, 轻雾
从 25日的 0700点(UTC)
风速10节,风向南转西南,有时为18节阵风
能見度: 10公里
阴天层高于6000英尺
附近有阵雨
从 25日的 1300点(UTC)
风速12节,风向南转西南,有时为20节阵风
能見度: 8.0公里
多云层高于3500英尺, 积雨云.
小阵雨, 附近有雷暴
从 25日的 1900点(UTC)
风速15节,风向南转西南,有时为25节阵风
能見度: 10公里
多云层高于3500英尺

TAF: KSTJ 242325Z 2500/2524 22011KT 4SM -SHRA VCTS BKN035CB TEMPO 2500/2504 22015G25KT 2SM -TSRA OVC025CB FM250400 19011KT 4SM -TSRA BR BKN035CB OVC150 FM250700 20010G18KT P6SM VCSH OVC060 FM251300 20012G20KT 5SM -SHRA VCTS BKN035CB FM251900 20015G25KT P6SM BKN035

超过4000个机场的气象观测和天气预报(METAR&TAF报告)。

可查询的气象台以黄色和红色小点在地图上表示。

将鼠标移到小点上方,可查看气象台名称。

然后点击查看天气观测和预报。

如需切换地图:点击带黑十字的绿色按钮放大地图;点击带横线的绿色按钮缩小地图;或者点击绿色箭头查看邻近地区的地图。


METAR-TAF: